Time;durP1;ratioP1;P1;durP2;ratioP2;P2;SDS_P1;SDS_P2;PMS_P1;PMS_P2;Temp;Humidity;BMP_temperature;BMP_pressure;BME280_temperature;BME280_humidity;BME280_pressure;Samples;Min_cycle;Max_cycle;Signal;HPM_P1;HPM_P2
2023/01/24 00:00:50;;;;;;;20.58;10.65;;;;;;;;;;5135708;27;20200;-59
2023/01/24 00:03:16;;;;;;;13.43;9.68;;;;;;;;;;5135614;27;20189;-59
2023/01/24 00:05:44;;;;;;;14.90;10.68;;;;;;;;;;5135556;27;20194;-59
2023/01/24 00:08:14;;;;;;;18.83;11.18;;;;;;;;;;5135286;27;20208;-59
2023/01/24 00:10:41;;;;;;;17.88;11.30;;;;;;;;;;5135498;27;20194;-59
2023/01/24 00:13:08;;;;;;;21.17;11.57;;;;;;;;;;5135551;27;20188;-58
2023/01/24 00:15:35;;;;;;;19.80;12.02;;;;;;;;;;5135359;27;20189;-59
2023/01/24 00:18:02;;;;;;;16.50;10.40;;;;;;;;;;5135316;27;20195;-59
2023/01/24 00:20:29;;;;;;;18.40;10.82;;;;;;;;;;5135162;27;20552;-59
2023/01/24 00:22:56;;;;;;;14.40;10.10;;;;;;;;;;5135271;27;20196;-59
2023/01/24 00:25:24;;;;;;;13.20;9.73;;;;;;;;;;5135209;27;20199;-59
2023/01/24 00:27:51;;;;;;;18.35;11.10;;;;;;;;;;5135100;27;20209;-59
2023/01/24 00:30:18;;;;;;;16.42;11.57;;;;;;;;;;5134130;27;20678;-59
2023/01/24 00:32:45;;;;;;;19.23;11.27;;;;;;;;;;5134934;27;20195;-59
2023/01/24 00:35:12;;;;;;;24.40;13.75;;;;;;;;;;5134724;27;20275;-59
2023/01/24 00:37:39;;;;;;;17.38;10.70;;;;;;;;;;5134951;27;20323;-59
2023/01/24 00:40:06;;;;;;;21.75;10.98;;;;;;;;;;5134714;27;20763;-59
2023/01/24 00:42:34;;;;;;;20.95;12.45;;;;;;;;;;5134962;27;20298;-59
2023/01/24 00:45:01;;;;;;;19.08;10.40;;;;;;;;;;5134625;27;20217;-59
2023/01/24 00:47:28;;;;;;;19.50;11.57;;;;;;;;;;5134535;27;20284;-59
2023/01/24 00:49:55;;;;;;;20.70;12.25;;;;;;;;;;5134914;27;20196;-59
2023/01/24 00:52:22;;;;;;;23.05;11.68;;;;;;;;;;5134646;27;20275;-59
2023/01/24 00:54:49;;;;;;;26.10;12.93;;;;;;;;;;5134688;27;20659;-59
2023/01/24 00:57:16;;;;;;;22.83;12.77;;;;;;;;;;5134511;27;20237;-59
2023/01/24 00:59:44;;;;;;;24.70;12.13;;;;;;;;;;5134571;27;20194;-59
2023/01/24 01:02:11;;;;;;;19.33;11.27;;;;;;;;;;5134401;27;20220;-59
2023/01/24 01:04:38;;;;;;;21.05;12.50;;;;;;;;;;5134501;27;20551;-59
2023/01/24 01:07:05;;;;;;;27.20;13.20;;;;;;;;;;5134468;27;20188;-59
2023/01/24 01:09:32;;;;;;;29.33;12.25;;;;;;;;;;5134405;27;20219;-59
2023/01/24 01:11:59;;;;;;;28.42;11.98;;;;;;;;;;5134256;27;20195;-59
2023/01/24 01:14:26;;;;;;;25.48;12.13;;;;;;;;;;5134186;27;20188;-59
2023/01/24 01:16:54;;;;;;;20.35;11.35;;;;;;;;;;5134073;27;20608;-59
2023/01/24 01:19:21;;;;;;;21.73;11.07;;;;;;;;;;5134269;27;20193;-59
2023/01/24 01:21:49;;;;;;;17.25;10.68;;;;;;;;;;5134041;27;20662;-59
2023/01/24 01:24:16;;;;;;;24.92;12.10;;;;;;;;;;5134015;27;20192;-59
2023/01/24 01:26:43;;;;;;;31.13;13.10;;;;;;;;;;5133919;27;20266;-59
2023/01/24 01:29:10;;;;;;;24.17;12.02;;;;;;;;;;5133869;27;20212;-59
2023/01/24 01:31:37;;;;;;;25.63;12.93;;;;;;;;;;5134251;27;20513;-59
2023/01/24 01:34:05;;;;;;;23.05;11.27;;;;;;;;;;5133909;27;20188;-59
2023/01/24 01:36:32;;;;;;;21.90;12.50;;;;;;;;;;5133654;27;20280;-59
2023/01/24 01:38:59;;;;;;;24.77;13.48;;;;;;;;;;5133421;27;20194;-59
2023/01/24 01:41:26;;;;;;;23.00;12.45;;;;;;;;;;5133225;27;20188;-59
2023/01/24 01:46:41;;;;;;;25.20;13.45;;;;;;;;;;5133546;28;20566;-59
2023/01/24 01:49:14;;;;;;;21.13;11.75;;;;;;;;;;5133462;28;20230;-59
2023/01/24 01:51:45;;;;;;;24.30;12.35;;;;;;;;;;5133485;28;20192;-59
2023/01/24 01:54:16;;;;;;;20.77;13.48;;;;;;;;;;5133278;28;20211;-59
2023/01/24 01:56:45;;;;;;;22.27;13.15;;;;;;;;;;5133638;28;20270;-59
2023/01/24 01:59:14;;;;;;;25.90;12.73;;;;;;;;;;5133391;28;20625;-59
2023/01/24 02:01:42;;;;;;;26.75;14.20;;;;;;;;;;5133337;28;20188;-59
2023/01/24 02:04:12;;;;;;;33.63;13.65;;;;;;;;;;5133300;28;20190;-59
2023/01/24 02:06:45;;;;;;;26.27;13.95;;;;;;;;;;5133283;28;20199;-59
2023/01/24 02:09:12;;;;;;;26.33;13.05;;;;;;;;;;5133370;28;20628;-59
2023/01/24 02:11:39;;;;;;;28.38;13.95;;;;;;;;;;5133379;28;20547;-59
2023/01/24 02:16:52;;;;;;;22.95;14.48;;;;;;;;;;5133248;28;20195;-59
2023/01/24 02:19:27;;;;;;;30.23;15.25;;;;;;;;;;5132961;28;20196;-59
2023/01/24 02:21:57;;;;;;;28.77;13.88;;;;;;;;;;5133240;28;20184;-59
2023/01/24 02:24:32;;;;;;;31.27;13.55;;;;;;;;;;5133217;28;20195;-59
2023/01/24 02:27:00;;;;;;;22.00;14.30;;;;;;;;;;5132954;28;20191;-59
2023/01/24 02:29:27;;;;;;;27.40;14.80;;;;;;;;;;5133075;28;20207;-59
2023/01/24 02:31:55;;;;;;;20.48;13.55;;;;;;;;;;5132963;28;20185;-59
2023/01/24 02:34:22;;;;;;;28.67;14.45;;;;;;;;;;5133332;28;20187;-59
2023/01/24 02:36:51;;;;;;;28.60;15.05;;;;;;;;;;5133088;28;20211;-59
2023/01/24 02:39:20;;;;;;;33.20;15.32;;;;;;;;;;5132954;28;20603;-59
2023/01/24 02:41:49;;;;;;;23.45;13.43;;;;;;;;;;5132908;28;20193;-59
2023/01/24 02:44:19;;;;;;;31.95;15.75;;;;;;;;;;5132539;28;20647;-59
2023/01/24 02:46:47;;;;;;;27.60;14.57;;;;;;;;;;5132871;28;20659;-59
2023/01/24 02:49:14;;;;;;;25.90;12.88;;;;;;;;;;5132946;28;20226;-59
2023/01/24 02:54:25;;;;;;;24.83;14.18;;;;;;;;;;5136578;27;20187;-59
2023/01/24 02:59:47;;;;;;;26.30;14.40;;;;;;;;;;5087586;27;20213;-58
2023/01/24 03:02:14;;;;;;;26.77;13.75;;;;;;;;;;5136489;27;20188;-59
2023/01/24 03:04:40;;;;;;;23.33;12.52;;;;;;;;;;5136459;27;20273;-59
2023/01/24 03:07:07;;;;;;;25.33;14.98;;;;;;;;;;5136190;27;20283;-59
2023/01/24 03:09:34;;;;;;;29.55;14.07;;;;;;;;;;5136118;27;20220;-59
2023/01/24 03:36:46;;;;;;;30.65;15.07;;;;;;;;;;5135848;27;20545;-59
2023/01/24 03:41:58;;;;;;;30.35;14.70;;;;;;;;;;5135687;27;20190;-59
2023/01/24 03:44:25;;;;;;;28.10;14.13;;;;;;;;;;5135324;27;20618;-59
2023/01/24 03:46:53;;;;;;;29.20;14.70;;;;;;;;;;5135532;27;20192;-59
2023/01/24 03:54:45;;;;;;;26.35;13.48;;;;;;;;;;5073784;27;20197;-60
2023/01/24 03:57:12;;;;;;;27.27;14.15;;;;;;;;;;5135315;27;20788;-60
2023/01/24 03:59:39;;;;;;;31.05;15.60;;;;;;;;;;5135459;27;20194;-60
2023/01/24 04:02:07;;;;;;;36.53;15.50;;;;;;;;;;5135355;27;20199;-60
2023/01/24 04:07:15;;;;;;;31.73;15.90;;;;;;;;;;5134080;27;20208;-59
2023/01/24 04:09:42;;;;;;;28.85;13.65;;;;;;;;;;5134945;27;20226;-60
2023/01/24 04:12:09;;;;;;;26.15;13.70;;;;;;;;;;5134975;27;20651;-60
2023/01/24 04:14:36;;;;;;;27.10;14.93;;;;;;;;;;5135106;27;20283;-59
2023/01/24 04:17:03;;;;;;;25.13;14.32;;;;;;;;;;5135065;27;20187;-59
2023/01/24 04:19:31;;;;;;;34.58;15.25;;;;;;;;;;5135003;27;20234;-60
2023/01/24 04:21:58;;;;;;;32.30;14.48;;;;;;;;;;5134875;27;20195;-59
2023/01/24 04:24:25;;;;;;;30.25;14.43;;;;;;;;;;5134972;27;20677;-59
2023/01/24 04:26:52;;;;;;;26.45;14.30;;;;;;;;;;5134909;27;20195;-59
2023/01/24 04:29:20;;;;;;;28.70;14.52;;;;;;;;;;5134917;27;20315;-60
2023/01/24 04:31:47;;;;;;;32.33;15.52;;;;;;;;;;5134780;27;20278;-60
2023/01/24 04:34:14;;;;;;;31.27;15.35;;;;;;;;;;5134677;27;20188;-59
2023/01/24 04:36:42;;;;;;;38.35;15.40;;;;;;;;;;5134642;27;20546;-59
2023/01/24 04:39:09;;;;;;;35.30;15.02;;;;;;;;;;5134319;27;20199;-59
2023/01/24 04:41:36;;;;;;;30.75;14.55;;;;;;;;;;5134586;27;20188;-60
2023/01/24 04:44:03;;;;;;;25.30;14.23;;;;;;;;;;5134379;27;20198;-59
2023/01/24 04:46:30;;;;;;;26.08;15.25;;;;;;;;;;5134208;27;20224;-60
2023/01/24 04:48:57;;;;;;;33.50;14.38;;;;;;;;;;5134285;27;20215;-59
2023/01/24 04:51:24;;;;;;;30.92;14.77;;;;;;;;;;5134227;27;20619;-59
2023/01/24 04:53:52;;;;;;;36.20;14.70;;;;;;;;;;5134500;27;20204;-60
2023/01/24 04:56:19;;;;;;;29.95;14.07;;;;;;;;;;5134360;27;20550;-60
2023/01/24 04:58:46;;;;;;;36.00;15.93;;;;;;;;;;5134115;27;20184;-60
2023/01/24 05:01:13;;;;;;;29.00;13.95;;;;;;;;;;5134219;27;20192;-60
2023/01/24 05:03:40;;;;;;;33.17;14.23;;;;;;;;;;5134006;27;20386;-59
2023/01/24 05:06:07;;;;;;;29.63;14.02;;;;;;;;;;5133934;27;20192;-59
2023/01/24 05:08:34;;;;;;;32.05;14.45;;;;;;;;;;5134008;27;20210;-60
2023/01/24 05:11:03;;;;;;;31.20;14.48;;;;;;;;;;5133853;27;20711;-60
2023/01/24 05:13:30;;;;;;;25.67;14.40;;;;;;;;;;5133934;27;20191;-59
2023/01/24 05:15:57;;;;;;;27.73;14.43;;;;;;;;;;5133524;27;20276;-60
2023/01/24 05:18:24;;;;;;;31.83;15.57;;;;;;;;;;5133652;27;20216;-60
2023/01/24 05:20:50;;;;;;;35.75;16.23;;;;;;;;;;5134002;27;20276;-60
2023/01/24 05:23:17;;;;;;;33.08;15.23;;;;;;;;;;5133737;27;20570;-59
2023/01/24 05:25:44;;;;;;;30.63;14.10;;;;;;;;;;5133794;27;20184;-59
2023/01/24 05:28:13;;;;;;;30.55;13.18;;;;;;;;;;5133636;27;20192;-60
2023/01/24 05:30:40;;;;;;;28.83;13.40;;;;;;;;;;5133578;27;20231;-59
2023/01/24 05:33:06;;;;;;;32.10;15.13;;;;;;;;;;5133472;27;20192;-59
2023/01/24 05:35:33;;;;;;;28.80;14.85;;;;;;;;;;5133798;27;20274;-59
2023/01/24 05:38:01;;;;;;;25.42;14.32;;;;;;;;;;5133509;27;20198;-59
2023/01/24 05:40:28;;;;;;;28.98;14.00;;;;;;;;;;5133501;27;20597;-59
2023/01/24 05:42:55;;;;;;;25.42;13.10;;;;;;;;;;5133755;27;20194;-59
2023/01/24 05:45:23;;;;;;;26.20;13.75;;;;;;;;;;5133256;27;20304;-59
2023/01/24 05:47:50;;;;;;;26.60;13.52;;;;;;;;;;5133665;27;20196;-59
2023/01/24 05:50:17;;;;;;;26.27;14.02;;;;;;;;;;5133300;28;20219;-59
2023/01/24 05:52:44;;;;;;;24.42;12.40;;;;;;;;;;5133480;28;20203;-60
2023/01/24 05:55:11;;;;;;;32.58;13.40;;;;;;;;;;5133349;28;20546;-59
2023/01/24 05:57:38;;;;;;;28.20;14.15;;;;;;;;;;5133540;28;20190;-59
2023/01/24 06:00:05;;;;;;;25.30;14.38;;;;;;;;;;5133273;28;20214;-60
2023/01/24 06:02:33;;;;;;;26.83;13.15;;;;;;;;;;5133279;28;20690;-59
2023/01/24 06:05:00;;;;;;;21.70;14.18;;;;;;;;;;5133451;28;20219;-59
2023/01/24 06:07:27;;;;;;;24.88;13.27;;;;;;;;;;5133140;28;20199;-59
2023/01/24 06:09:54;;;;;;;27.20;14.05;;;;;;;;;;5133174;28;20220;-59
2023/01/24 06:12:21;;;;;;;33.65;15.27;;;;;;;;;;5133418;28;20184;-59
2023/01/24 06:14:48;;;;;;;30.52;14.65;;;;;;;;;;5133244;28;20643;-59
2023/01/24 06:17:15;;;;;;;29.30;14.15;;;;;;;;;;5133486;28;20201;-59
2023/01/24 06:19:43;;;;;;;30.13;12.90;;;;;;;;;;5133367;28;20188;-59
2023/01/24 06:22:17;;;;;;;21.55;13.23;;;;;;;;;;5133236;28;20188;-59
2023/01/24 06:24:44;;;;;;;35.83;14.63;;;;;;;;;;5132991;28;20245;-59
2023/01/24 06:27:11;;;;;;;25.75;13.57;;;;;;;;;;5133470;27;20207;-59
2023/01/24 06:29:38;;;;;;;27.65;13.13;;;;;;;;;;5136620;27;20309;-59
2023/01/24 06:32:13;;;;;;;21.92;12.55;;;;;;;;;;5137223;27;20187;-59
2023/01/24 06:34:57;;;;;;;25.20;14.52;;;;;;;;;;5137149;27;20191;-59
2023/01/24 06:37:29;;;;;;;31.98;13.98;;;;;;;;;;5137116;27;20201;-59
2023/01/24 06:39:57;;;;;;;28.60;13.02;;;;;;;;;;5136885;27;20203;-59
2023/01/24 06:42:24;;;;;;;28.77;14.70;;;;;;;;;;5136950;27;20228;-59
2023/01/24 06:44:51;;;;;;;36.13;16.15;;;;;;;;;;5136485;27;20699;-59
2023/01/24 06:47:18;;;;;;;28.60;14.27;;;;;;;;;;5136873;27;20185;-59
2023/01/24 06:49:45;;;;;;;24.98;15.55;;;;;;;;;;5136671;27;20218;-59
2023/01/24 06:52:14;;;;;;;25.75;14.77;;;;;;;;;;5136467;27;20200;-59
2023/01/24 06:54:41;;;;;;;34.28;15.88;;;;;;;;;;5136733;27;20280;-59
2023/01/24 06:57:08;;;;;;;33.22;17.45;;;;;;;;;;5136429;27;20194;-59
2023/01/24 06:59:35;;;;;;;31.58;15.43;;;;;;;;;;5136472;27;20275;-59
2023/01/24 07:02:02;;;;;;;31.10;15.05;;;;;;;;;;5136443;27;20556;-59
2023/01/24 07:04:29;;;;;;;26.75;15.38;;;;;;;;;;5136277;27;20191;-59
2023/01/24 07:06:55;;;;;;;33.67;16.05;;;;;;;;;;5136139;27;20242;-59
2023/01/24 07:09:24;;;;;;;32.15;15.77;;;;;;;;;;5136469;27;20276;-61
2023/01/24 07:11:55;;;;;;;32.00;16.23;;;;;;;;;;5136435;27;20188;-61
2023/01/24 07:14:22;;;;;;;31.98;14.80;;;;;;;;;;5136664;27;20271;-61
2023/01/24 07:16:50;;;;;;;34.97;15.52;;;;;;;;;;5135993;27;20192;-61
2023/01/24 07:19:19;;;;;;;36.63;17.27;;;;;;;;;;5135967;27;20194;-61
2023/01/24 07:21:46;;;;;;;31.85;15.98;;;;;;;;;;5136168;27;20189;-61
2023/01/24 07:24:15;;;;;;;34.00;16.63;;;;;;;;;;5136031;27;20275;-60
2023/01/24 07:26:43;;;;;;;30.73;15.13;;;;;;;;;;5136023;27;20201;-60
2023/01/24 07:29:11;;;;;;;36.95;18.17;;;;;;;;;;5135774;27;20215;-60
2023/01/24 07:31:37;;;;;;;36.90;16.90;;;;;;;;;;5135653;27;20212;-61
2023/01/24 07:34:04;;;;;;;41.80;16.98;;;;;;;;;;5135672;27;20189;-60
2023/01/24 07:36:31;;;;;;;33.35;16.17;;;;;;;;;;5135886;27;20190;-60
2023/01/24 07:38:59;;;;;;;31.40;17.02;;;;;;;;;;5135337;27;20188;-60
2023/01/24 07:41:26;;;;;;;36.00;15.95;;;;;;;;;;5135850;27;20197;-60
2023/01/24 07:43:54;;;;;;;36.97;16.30;;;;;;;;;;5135691;27;20271;-60
2023/01/24 07:46:21;;;;;;;41.33;17.25;;;;;;;;;;5135257;27;20307;-60
2023/01/24 07:48:48;;;;;;;39.95;18.70;;;;;;;;;;5135650;27;20185;-60
2023/01/24 07:51:15;;;;;;;36.85;16.67;;;;;;;;;;5135526;27;20314;-60
2023/01/24 07:53:42;;;;;;;40.40;18.75;;;;;;;;;;5135558;27;20185;-60
2023/01/24 07:56:09;;;;;;;35.10;17.30;;;;;;;;;;5135431;27;20185;-60
2023/01/24 07:58:36;;;;;;;30.63;16.88;;;;;;;;;;5135362;27;20188;-60
2023/01/24 08:01:05;;;;;;;32.72;17.88;;;;;;;;;;5135291;27;20555;-60
2023/01/24 08:03:31;;;;;;;32.58;17.45;;;;;;;;;;5135527;27;20283;-60
2023/01/24 08:05:58;;;;;;;38.13;17.77;;;;;;;;;;5135417;27;20381;-60
2023/01/24 08:08:25;;;;;;;42.33;17.70;;;;;;;;;;5135263;27;20283;-60
2023/01/24 08:10:53;;;;;;;31.42;16.00;;;;;;;;;;5135011;27;20219;-60
2023/01/24 08:13:21;;;;;;;34.15;17.45;;;;;;;;;;5135120;27;20193;-60
2023/01/24 08:15:48;;;;;;;29.85;16.00;;;;;;;;;;5135006;27;20192;-60
2023/01/24 08:18:17;;;;;;;37.53;16.13;;;;;;;;;;5122262;27;20275;-60
2023/01/24 08:20:44;;;;;;;34.97;17.10;;;;;;;;;;5115341;27;20205;-60
2023/01/24 08:23:11;;;;;;;36.30;17.00;;;;;;;;;;5120140;27;20253;-60
2023/01/24 08:25:38;;;;;;;33.75;18.02;;;;;;;;;;5135315;27;20280;-60
2023/01/24 08:28:05;;;;;;;38.47;16.98;;;;;;;;;;5134671;27;20291;-60
2023/01/24 08:30:32;;;;;;;30.58;16.75;;;;;;;;;;5134856;27;20250;-60
2023/01/24 08:33:00;;;;;;;34.70;15.77;;;;;;;;;;5134637;27;20192;-60
2023/01/24 08:35:28;;;;;;;30.75;16.40;;;;;;;;;;5134812;27;20196;-60
2023/01/24 08:37:55;;;;;;;34.67;16.42;;;;;;;;;;5134618;27;20279;-60
2023/01/24 08:40:22;;;;;;;32.30;15.90;;;;;;;;;;5134415;27;20627;-60
2023/01/24 08:42:49;;;;;;;35.50;18.13;;;;;;;;;;5133938;27;20447;-60
2023/01/24 08:45:16;;;;;;;38.08;17.95;;;;;;;;;;5134101;27;20227;-60
2023/01/24 08:47:43;;;;;;;36.05;18.35;;;;;;;;;;5134291;27;20279;-60
2023/01/24 08:50:11;;;;;;;35.80;16.83;;;;;;;;;;5130168;27;20241;-60
2023/01/24 08:52:39;;;;;;;32.95;16.42;;;;;;;;;;5128414;27;20186;-61
2023/01/24 08:55:06;;;;;;;36.03;17.23;;;;;;;;;;5133930;27;20197;-60
2023/01/24 08:57:33;;;;;;;32.35;17.30;;;;;;;;;;5134164;27;20273;-60
2023/01/24 09:00:00;;;;;;;33.97;17.63;;;;;;;;;;5134873;27;20267;-60
2023/01/24 09:02:27;;;;;;;40.22;17.10;;;;;;;;;;5134106;27;20674;-60
2023/01/24 09:04:54;;;;;;;34.13;18.25;;;;;;;;;;5134002;27;20280;-60
2023/01/24 09:07:21;;;;;;;41.30;18.08;;;;;;;;;;5133786;27;20278;-60
2023/01/24 09:09:49;;;;;;;34.65;18.90;;;;;;;;;;5133670;27;20185;-60
2023/01/24 09:12:17;;;;;;;32.90;17.92;;;;;;;;;;5133950;27;20520;-60
2023/01/24 09:14:43;;;;;;;32.20;16.55;;;;;;;;;;5133751;27;20284;-60
2023/01/24 09:17:10;;;;;;;41.38;18.60;;;;;;;;;;5133848;27;20190;-60
2023/01/24 09:19:37;;;;;;;30.45;16.33;;;;;;;;;;5133635;27;20184;-60
2023/01/24 09:22:04;;;;;;;39.95;17.83;;;;;;;;;;5133698;27;20278;-60
2023/01/24 09:24:31;;;;;;;36.92;17.40;;;;;;;;;;5133393;27;20185;-60
2023/01/24 09:26:59;;;;;;;33.38;18.63;;;;;;;;;;5133496;27;20528;-59
2023/01/24 09:29:26;;;;;;;34.55;17.45;;;;;;;;;;5133372;27;20666;-60
2023/01/24 09:31:54;;;;;;;31.35;18.00;;;;;;;;;;5133382;27;20303;-59
2023/01/24 09:34:21;;;;;;;37.97;18.40;;;;;;;;;;5133342;27;20189;-60
2023/01/24 09:36:49;;;;;;;34.28;17.85;;;;;;;;;;5133322;27;20305;-59
2023/01/24 09:39:16;;;;;;;36.78;18.65;;;;;;;;;;5133899;27;20199;-59
2023/01/24 09:41:48;;;;;;;37.55;18.30;;;;;;;;;;5133874;27;20194;-60
2023/01/24 09:44:22;;;;;;;38.25;18.92;;;;;;;;;;5130977;27;20192;-60
2023/01/24 09:46:50;;;;;;;35.60;17.52;;;;;;;;;;5113326;28;20220;-59
2023/01/24 09:49:18;;;;;;;32.10;18.05;;;;;;;;;;5113072;28;20194;-60
2023/01/24 09:51:47;;;;;;;32.58;17.80;;;;;;;;;;5113004;28;20706;-60
2023/01/24 09:54:17;;;;;;;33.53;18.15;;;;;;;;;;5113220;28;20551;-59
2023/01/24 09:56:46;;;;;;;34.25;19.42;;;;;;;;;;5113104;28;20185;-59
2023/01/24 09:59:15;;;;;;;38.35;20.45;;;;;;;;;;5112940;28;20432;-60
2023/01/24 10:01:44;;;;;;;37.50;20.70;;;;;;;;;;5114423;28;20279;-60
2023/01/24 10:04:25;;;;;;;45.75;19.88;;;;;;;;;;5117282;28;20280;-60
2023/01/24 10:07:00;;;;;;;37.67;19.60;;;;;;;;;;5114444;28;20188;-59
2023/01/24 10:09:31;;;;;;;35.10;16.30;;;;;;;;;;5117061;28;20557;-59
2023/01/24 10:12:02;;;;;;;35.72;18.83;;;;;;;;;;5119744;27;20701;-60
2023/01/24 10:14:37;;;;;;;38.38;19.15;;;;;;;;;;5126453;27;20185;-60
2023/01/24 10:17:18;;;;;;;27.30;15.80;;;;;;;;;;5125878;27;20181;-59
2023/01/24 10:20:05;;;;;;;38.15;19.50;;;;;;;;;;5116651;28;20616;-59
2023/01/24 10:22:44;;;;;;;29.48;15.85;;;;;;;;;;5076842;28;20201;-60
2023/01/24 10:25:13;;;;;;;35.50;17.85;;;;;;;;;;5117069;28;20199;-60
2023/01/24 10:27:43;;;;;;;38.60;17.83;;;;;;;;;;5117127;28;20192;-60
2023/01/24 10:30:14;;;;;;;31.33;18.05;;;;;;;;;;5116927;28;20196;-60
2023/01/24 10:32:43;;;;;;;32.40;19.23;;;;;;;;;;5116986;28;20229;-60
2023/01/24 10:35:13;;;;;;;31.38;16.65;;;;;;;;;;5116893;28;20190;-60
2023/01/24 10:37:43;;;;;;;37.25;18.98;;;;;;;;;;5116783;28;20212;-59
2023/01/24 10:40:12;;;;;;;24.65;16.55;;;;;;;;;;5116900;28;20199;-60
2023/01/24 10:42:39;;;;;;;31.85;18.77;;;;;;;;;;5116747;28;20201;-60
2023/01/24 10:45:18;;;;;;;34.22;18.95;;;;;;;;;;5116374;28;20229;-60
2023/01/24 10:47:46;;;;;;;30.40;17.02;;;;;;;;;;5116431;28;20189;-60
2023/01/24 10:50:15;;;;;;;30.50;16.63;;;;;;;;;;5116408;28;20185;-60
2023/01/24 10:52:43;;;;;;;29.38;18.02;;;;;;;;;;5116427;28;20205;-59
2023/01/24 10:55:25;;;;;;;30.67;16.67;;;;;;;;;;5116312;28;20555;-60
2023/01/24 10:57:53;;;;;;;41.30;18.08;;;;;;;;;;5116236;28;20206;-60
2023/01/24 11:00:26;;;;;;;28.92;17.83;;;;;;;;;;5116084;28;20238;-60
2023/01/24 11:02:54;;;;;;;29.08;16.55;;;;;;;;;;5116322;28;20190;-60
2023/01/24 11:05:22;;;;;;;29.80;17.73;;;;;;;;;;5116229;28;20192;-59
2023/01/24 11:07:51;;;;;;;29.67;17.23;;;;;;;;;;5115833;28;20190;-60
2023/01/24 11:10:25;;;;;;;27.80;17.85;;;;;;;;;;5115922;28;20653;-60
2023/01/24 11:12:53;;;;;;;30.73;17.10;;;;;;;;;;5115201;28;20195;-64
2023/01/24 11:15:23;;;;;;;29.25;18.40;;;;;;;;;;5115954;28;20199;-64
2023/01/24 11:17:54;;;;;;;29.40;17.63;;;;;;;;;;5116004;28;20192;-64
2023/01/24 11:20:24;;;;;;;37.15;18.77;;;;;;;;;;5115843;28;20644;-64
2023/01/24 11:22:52;;;;;;;29.88;17.52;;;;;;;;;;5115757;28;20193;-63
2023/01/24 11:25:19;;;;;;;26.55;16.92;;;;;;;;;;5115942;28;20547;-64
2023/01/24 11:27:47;;;;;;;25.30;17.52;;;;;;;;;;5115844;28;20200;-64
2023/01/24 11:30:18;;;;;;;29.63;17.35;;;;;;;;;;5115437;28;20268;-64
2023/01/24 11:32:52;;;;;;;35.63;19.42;;;;;;;;;;5115136;28;20204;-64
2023/01/24 11:35:20;;;;;;;30.85;17.33;;;;;;;;;;5115138;28;20190;-64
2023/01/24 11:38:01;;;;;;;32.85;18.23;;;;;;;;;;5114915;28;20273;-64
2023/01/24 11:40:36;;;;;;;29.23;18.35;;;;;;;;;;5115704;28;20185;-64
2023/01/24 11:43:09;;;;;;;29.38;19.17;;;;;;;;;;5115575;28;20617;-64
2023/01/24 11:45:51;;;;;;;28.65;18.25;;;;;;;;;;5115381;28;20217;-64
2023/01/24 11:48:20;;;;;;;31.52;18.65;;;;;;;;;;5115321;28;20189;-63
2023/01/24 11:50:55;;;;;;;32.22;18.70;;;;;;;;;;5115089;28;20189;-64
2023/01/24 11:53:31;;;;;;;29.67;18.42;;;;;;;;;;5123356;27;20566;-64
2023/01/24 11:56:01;;;;;;;39.88;19.55;;;;;;;;;;5117950;27;20201;-64
2023/01/24 11:58:37;;;;;;;31.20;18.95;;;;;;;;;;5115055;28;20191;-65
2023/01/24 12:01:08;;;;;;;32.60;21.42;;;;;;;;;;5115217;28;20197;-65
2023/01/24 12:03:39;;;;;;;32.47;20.70;;;;;;;;;;5115152;28;20200;-65
2023/01/24 12:06:14;;;;;;;31.13;19.42;;;;;;;;;;5115001;28;20194;-65
2023/01/24 12:08:51;;;;;;;30.50;18.25;;;;;;;;;;5114870;28;20188;-64
2023/01/24 12:11:22;;;;;;;31.05;19.30;;;;;;;;;;5115044;28;20325;-65
2023/01/24 12:13:54;;;;;;;26.67;17.70;;;;;;;;;;5114994;28;20242;-64
2023/01/24 12:16:29;;;;;;;37.03;20.38;;;;;;;;;;5114834;28;20189;-65
2023/01/24 12:19:06;;;;;;;30.42;19.77;;;;;;;;;;5114713;28;20621;-64
2023/01/24 12:21:33;;;;;;;31.65;17.65;;;;;;;;;;5114400;28;20192;-64
2023/01/24 12:24:03;;;;;;;27.98;18.63;;;;;;;;;;5114615;28;20187;-64
2023/01/24 12:26:32;;;;;;;30.73;18.42;;;;;;;;;;5113802;28;20204;-65
2023/01/24 12:29:02;;;;;;;30.50;18.85;;;;;;;;;;5114609;28;20190;-65
2023/01/24 12:31:33;;;;;;;29.77;18.23;;;;;;;;;;5114473;28;20244;-63
2023/01/24 12:34:02;;;;;;;34.35;20.15;;;;;;;;;;5114022;28;20200;-60
2023/01/24 12:36:35;;;;;;;27.65;17.13;;;;;;;;;;5114502;28;20199;-64
2023/01/24 12:39:09;;;;;;;44.90;21.70;;;;;;;;;;5114223;28;20191;-64
2023/01/24 12:41:37;;;;;;;27.60;18.85;;;;;;;;;;5114217;28;20191;-64
2023/01/24 12:44:13;;;;;;;33.17;19.95;;;;;;;;;;5129923;27;20541;-65
2023/01/24 12:46:40;;;;;;;37.67;19.60;;;;;;;;;;5134966;27;20181;-65
2023/01/24 12:49:11;;;;;;;28.33;17.92;;;;;;;;;;5134784;27;20188;-64
2023/01/24 12:51:41;;;;;;;31.65;20.27;;;;;;;;;;5134655;27;20217;-64
2023/01/24 12:54:12;;;;;;;30.83;18.98;;;;;;;;;;5134598;27;20190;-65
2023/01/24 12:56:43;;;;;;;33.40;19.60;;;;;;;;;;5134487;27;20285;-64
2023/01/24 12:59:12;;;;;;;30.60;18.67;;;;;;;;;;5134676;27;20607;-65
2023/01/24 13:01:48;;;;;;;32.15;19.50;;;;;;;;;;5134399;27;20199;-65
2023/01/24 13:04:20;;;;;;;33.50;20.17;;;;;;;;;;5134412;27;20237;-64
2023/01/24 13:06:54;;;;;;;32.00;18.48;;;;;;;;;;5134371;27;20189;-64
2023/01/24 13:09:25;;;;;;;28.23;19.35;;;;;;;;;;5134257;27;20648;-64
2023/01/24 13:11:54;;;;;;;28.75;18.15;;;;;;;;;;5134375;27;20223;-64
2023/01/24 13:14:22;;;;;;;33.38;22.33;;;;;;;;;;5134294;27;20196;-64
2023/01/24 13:17:06;;;;;;;32.47;19.92;;;;;;;;;;5134224;27;20281;-64
2023/01/24 13:19:38;;;;;;;34.88;22.05;;;;;;;;;;5134058;27;20189;-64
2023/01/24 13:22:11;;;;;;;32.90;19.48;;;;;;;;;;5134026;27;20641;-65
2023/01/24 13:24:48;;;;;;;32.25;21.10;;;;;;;;;;5134160;27;20210;-65
2023/01/24 13:27:24;;;;;;;33.72;19.98;;;;;;;;;;5134148;27;20193;-65
2023/01/24 13:29:57;;;;;;;30.50;20.42;;;;;;;;;;5134075;27;20199;-65
2023/01/24 13:32:24;;;;;;;31.40;18.55;;;;;;;;;;5133687;27;20216;-64
2023/01/24 13:34:52;;;;;;;38.22;22.10;;;;;;;;;;5133953;27;20196;-65
2023/01/24 13:37:21;;;;;;;34.97;21.55;;;;;;;;;;5133652;27;20555;-65
2023/01/24 13:39:59;;;;;;;33.03;20.30;;;;;;;;;;5133888;27;20631;-64
2023/01/24 13:42:33;;;;;;;32.17;21.20;;;;;;;;;;5133722;27;20223;-64
2023/01/24 13:45:00;;;;;;;31.88;20.63;;;;;;;;;;5123090;27;20227;-64
2023/01/24 13:47:35;;;;;;;35.70;20.80;;;;;;;;;;5113280;28;20194;-64
2023/01/24 13:50:11;;;;;;;35.75;21.85;;;;;;;;;;5113278;28;20208;-64
2023/01/24 13:52:39;;;;;;;35.33;22.05;;;;;;;;;;5113056;28;20213;-64
2023/01/24 13:55:29;;;;;;;31.80;20.25;;;;;;;;;;5112817;28;20692;-64
2023/01/24 13:58:12;;;;;;;36.60;22.35;;;;;;;;;;5120289;28;20183;-64
2023/01/24 14:00:48;;;;;;;36.60;19.85;;;;;;;;;;5113175;28;20200;-65
2023/01/24 14:03:19;;;;;;;38.45;21.55;;;;;;;;;;5112979;28;20228;-64
2023/01/24 14:05:54;;;;;;;40.05;24.48;;;;;;;;;;5112909;28;20246;-64
2023/01/24 14:08:48;;;;;;;39.10;22.17;;;;;;;;;;5113027;28;20189;-65
2023/01/24 14:11:29;;;;;;;36.15;22.00;;;;;;;;;;5064922;28;20202;-64
2023/01/24 14:13:58;;;;;;;38.10;24.77;;;;;;;;;;5112789;28;20546;-66
2023/01/24 14:16:43;;;;;;;44.05;25.13;;;;;;;;;;5116101;28;20190;-65
2023/01/24 14:19:14;;;;;;;43.05;24.67;;;;;;;;;;5112991;28;20533;-65
2023/01/24 14:21:47;;;;;;;39.55;23.67;;;;;;;;;;5112676;28;20614;-65
2023/01/24 14:24:20;;;;;;;43.90;23.88;;;;;;;;;;5112810;28;20200;-65
2023/01/24 14:26:51;;;;;;;44.55;23.88;;;;;;;;;;5113005;28;20189;-65
2023/01/24 14:29:19;;;;;;;37.25;22.50;;;;;;;;;;5113043;28;20280;-65
2023/01/24 14:31:49;;;;;;;37.50;22.85;;;;;;;;;;5112723;28;20194;-65
2023/01/24 14:34:18;;;;;;;38.67;23.63;;;;;;;;;;5112815;28;20189;-65
2023/01/24 14:36:47;;;;;;;39.65;22.20;;;;;;;;;;5112462;28;20254;-65
2023/01/24 14:39:19;;;;;;;44.33;25.17;;;;;;;;;;5112898;28;20196;-65
2023/01/24 14:41:48;;;;;;;47.05;23.67;;;;;;;;;;5112741;28;20215;-65
2023/01/24 14:44:17;;;;;;;45.90;25.15;;;;;;;;;;5112421;28;20190;-65
2023/01/24 14:46:52;;;;;;;40.45;22.65;;;;;;;;;;5112665;28;20667;-65
2023/01/24 14:49:26;;;;;;;43.60;25.38;;;;;;;;;;5114827;28;20196;-65
2023/01/24 14:51:53;;;;;;;47.42;23.42;;;;;;;;;;5116495;28;20339;-66
2023/01/24 14:54:21;;;;;;;46.08;23.33;;;;;;;;;;5116446;28;20194;-65
2023/01/24 14:56:49;;;;;;;42.55;22.08;;;;;;;;;;5116386;28;20277;-65
2023/01/24 14:59:18;;;;;;;42.60;22.55;;;;;;;;;;5116142;28;20193;-65
2023/01/24 15:01:46;;;;;;;42.63;21.27;;;;;;;;;;5116001;28;20280;-65
2023/01/24 15:04:23;;;;;;;47.28;23.23;;;;;;;;;;5116155;28;20212;-65
2023/01/24 15:07:04;;;;;;;41.65;22.23;;;;;;;;;;5116245;28;20625;-65
2023/01/24 15:09:31;;;;;;;43.55;22.73;;;;;;;;;;5116075;28;20196;-64
2023/01/24 15:12:11;;;;;;;43.03;23.77;;;;;;;;;;5115983;28;20670;-65
2023/01/24 15:14:39;;;;;;;42.97;22.50;;;;;;;;;;5116315;28;20201;-65